createdAt,value
2019-03-27T00:01:49.596Z,15.54
2019-03-27T00:04:16.481Z,15.54
2019-03-27T00:06:43.388Z,15.50
2019-03-27T00:09:10.711Z,15.50
2019-03-27T00:11:37.936Z,15.50
2019-03-27T00:14:05.178Z,15.49
2019-03-27T00:16:32.435Z,15.49
2019-03-27T00:18:59.312Z,15.49
2019-03-27T00:21:26.637Z,15.49
2019-03-27T00:23:53.781Z,15.47
2019-03-27T00:26:21.029Z,15.47
2019-03-27T00:28:48.182Z,15.48
2019-03-27T00:31:16.097Z,15.48
2019-03-27T00:33:42.993Z,15.47
2019-03-27T00:36:09.964Z,15.49
2019-03-27T00:38:37.190Z,15.51
2019-03-27T00:41:04.106Z,15.52
2019-03-27T00:43:30.980Z,15.50
2019-03-27T00:45:57.888Z,15.48
2019-03-27T00:48:26.118Z,15.52
2019-03-27T00:50:53.360Z,15.50
2019-03-27T00:53:20.504Z,15.49
2019-03-27T00:55:47.654Z,15.50
2019-03-27T00:58:14.933Z,15.49
2019-03-27T01:00:41.884Z,15.47
2019-03-27T01:03:08.839Z,15.47
2019-03-27T01:05:35.708Z,15.45
2019-03-27T01:08:02.594Z,15.42
2019-03-27T01:10:29.841Z,15.42
2019-03-27T01:12:56.744Z,15.41
2019-03-27T01:15:23.696Z,15.40
2019-03-27T01:17:50.663Z,15.39
2019-03-27T01:20:17.829Z,15.38
2019-03-27T01:22:44.801Z,15.36
2019-03-27T01:25:12.039Z,15.34
2019-03-27T01:27:39.400Z,15.34
2019-03-27T01:30:06.362Z,15.36
2019-03-27T01:32:33.318Z,15.35
2019-03-27T01:35:00.372Z,15.37
2019-03-27T01:37:27.363Z,15.35
2019-03-27T01:39:54.738Z,15.34
2019-03-27T01:42:21.723Z,15.33
2019-03-27T01:44:48.656Z,15.33
2019-03-27T01:47:15.553Z,15.31
2019-03-27T01:49:42.418Z,15.31
2019-03-27T01:52:09.308Z,15.32
2019-03-27T01:54:36.518Z,15.32
2019-03-27T01:57:03.753Z,15.33
2019-03-27T01:59:31.013Z,15.34
2019-03-27T02:01:57.988Z,15.35
2019-03-27T02:04:25.321Z,15.37
2019-03-27T02:06:52.572Z,15.37
2019-03-27T02:09:19.518Z,15.36
2019-03-27T02:11:46.382Z,15.34
2019-03-27T02:14:13.281Z,15.34
2019-03-27T02:16:40.602Z,15.29
2019-03-27T02:19:07.817Z,15.29
2019-03-27T02:21:34.677Z,15.27
2019-03-27T02:24:01.559Z,15.27
2019-03-27T02:26:28.428Z,15.27
2019-03-27T02:28:55.685Z,15.27
2019-03-27T02:31:22.577Z,15.27
2019-03-27T02:33:49.561Z,15.27
2019-03-27T02:36:16.829Z,15.28
2019-03-27T02:38:44.080Z,15.30
2019-03-27T02:41:11.047Z,15.32
2019-03-27T02:43:38.299Z,15.29
2019-03-27T02:46:05.280Z,15.29
2019-03-27T02:48:32.250Z,15.29
2019-03-27T02:50:59.530Z,15.30
2019-03-27T02:53:26.482Z,15.31
2019-03-27T02:55:53.369Z,15.29
2019-03-27T02:58:21.331Z,15.27
2019-03-27T03:00:48.269Z,15.28
2019-03-27T03:03:15.490Z,15.25
2019-03-27T03:05:42.429Z,15.23
2019-03-27T03:08:09.399Z,15.23
2019-03-27T03:10:36.361Z,15.24
2019-03-27T03:13:03.325Z,15.25
2019-03-27T03:15:30.633Z,15.25
2019-03-27T03:17:57.519Z,15.25
2019-03-27T03:20:24.464Z,15.27
2019-03-27T03:22:51.367Z,15.28
2019-03-27T03:25:18.320Z,15.25
2019-03-27T03:27:45.283Z,15.24
2019-03-27T03:30:12.260Z,15.19
2019-03-27T03:32:39.191Z,15.20
2019-03-27T03:35:07.540Z,15.19
2019-03-27T03:37:34.500Z,15.17
2019-03-27T03:40:01.815Z,15.13
2019-03-27T03:42:28.680Z,15.15
2019-03-27T03:44:55.910Z,15.18
2019-03-27T03:47:22.800Z,15.19
2019-03-27T03:49:50.874Z,15.22
2019-03-27T03:52:17.825Z,15.22
2019-03-27T03:54:44.790Z,15.25
2019-03-27T03:57:11.771Z,15.26
2019-03-27T03:59:38.793Z,15.27
2019-03-27T04:02:05.865Z,15.25
2019-03-27T04:04:32.902Z,15.23
2019-03-27T04:07:00.187Z,15.23
2019-03-27T04:09:27.164Z,15.24
2019-03-27T04:11:54.361Z,15.23
2019-03-27T04:14:21.281Z,15.22
2019-03-27T04:16:48.248Z,15.21
2019-03-27T04:19:15.275Z,15.21
2019-03-27T04:21:42.558Z,15.21
2019-03-27T04:24:09.545Z,15.18
2019-03-27T04:26:36.508Z,15.21
2019-03-27T04:29:03.432Z,15.22
2019-03-27T04:31:30.403Z,15.24
2019-03-27T04:33:57.379Z,15.27
2019-03-27T04:36:24.310Z,15.34
2019-03-27T04:38:51.203Z,15.36
2019-03-27T04:41:18.164Z,15.38
2019-03-27T04:43:45.401Z,15.38
2019-03-27T04:46:12.370Z,15.45
2019-03-27T04:48:39.425Z,15.46
2019-03-27T04:51:06.756Z,15.44
2019-03-27T04:53:34.003Z,15.42
2019-03-27T04:56:00.920Z,15.43
2019-03-27T04:58:27.946Z,15.42
2019-03-27T05:00:55.330Z,15.38
2019-03-27T05:03:22.603Z,15.39
2019-03-27T05:05:49.835Z,15.41
2019-03-27T05:08:17.804Z,15.42
2019-03-27T05:10:44.787Z,15.43
2019-03-27T05:13:12.120Z,15.43
2019-03-27T05:15:39.093Z,15.43
2019-03-27T05:18:06.349Z,15.41
2019-03-27T05:20:33.673Z,15.41
2019-03-27T05:23:00.567Z,15.39
2019-03-27T05:25:27.765Z,15.40
2019-03-27T05:27:54.712Z,15.45
2019-03-27T05:30:21.580Z,15.51
2019-03-27T05:32:48.473Z,15.58
2019-03-27T05:35:15.424Z,15.64
2019-03-27T05:37:42.586Z,15.71
2019-03-27T05:40:09.473Z,15.75
2019-03-27T05:42:36.339Z,15.76
2019-03-27T05:45:03.229Z,15.78
2019-03-27T05:47:31.261Z,15.79
2019-03-27T05:49:58.139Z,15.76
2019-03-27T05:52:25.118Z,15.77
2019-03-27T05:54:52.341Z,15.82
2019-03-27T05:57:19.247Z,15.80
2019-03-27T05:59:46.546Z,15.74
2019-03-27T06:02:13.545Z,15.69
2019-03-27T06:04:40.499Z,15.66
2019-03-27T06:07:07.791Z,15.66
2019-03-27T06:09:34.764Z,15.66
2019-03-27T06:12:01.991Z,15.68
2019-03-27T06:14:29.244Z,15.73
2019-03-27T06:16:56.215Z,15.79
2019-03-27T06:19:23.140Z,15.82
2019-03-27T06:21:50.084Z,15.84
2019-03-27T06:24:16.978Z,15.90
2019-03-27T06:26:44.169Z,15.90
2019-03-27T06:29:11.127Z,15.90
2019-03-27T06:31:38.364Z,15.95
2019-03-27T06:34:05.507Z,15.98
2019-03-27T06:36:32.425Z,16.03
2019-03-27T06:38:59.416Z,16.06
2019-03-27T06:41:26.660Z,16.08
2019-03-27T06:43:53.915Z,16.10
2019-03-27T06:46:20.888Z,16.14
2019-03-27T06:48:48.107Z,16.16
2019-03-27T06:51:16.423Z,16.18
2019-03-27T06:53:43.397Z,16.24
2019-03-27T06:56:10.582Z,16.30
2019-03-27T06:58:37.944Z,16.35
2019-03-27T07:01:05.092Z,16.39
2019-03-27T07:03:31.981Z,16.42
2019-03-27T07:05:58.877Z,16.40
2019-03-27T07:08:26.132Z,16.44
2019-03-27T07:10:53.007Z,16.52
2019-03-27T07:13:20.018Z,16.54
2019-03-27T07:15:47.003Z,16.57
2019-03-27T07:18:13.904Z,16.60
2019-03-27T07:20:41.213Z,16.59
2019-03-27T07:23:08.874Z,16.54
2019-03-27T07:25:35.814Z,16.56
2019-03-27T07:28:02.710Z,16.61
2019-03-27T07:30:29.603Z,16.70
2019-03-27T07:32:57.662Z,16.74
2019-03-27T07:35:25.701Z,16.76
2019-03-27T07:37:52.597Z,16.69
2019-03-27T07:40:19.466Z,16.65
2019-03-27T07:42:46.358Z,16.60
2019-03-27T07:45:13.258Z,16.62
2019-03-27T07:47:40.544Z,16.67
2019-03-27T07:50:07.785Z,16.67
2019-03-27T07:52:34.673Z,16.69
2019-03-27T07:55:01.993Z,16.70
2019-03-27T07:57:29.244Z,16.71
2019-03-27T07:59:56.148Z,16.71
2019-03-27T08:02:23.441Z,16.70
2019-03-27T08:04:50.591Z,16.69
2019-03-27T08:07:26.616Z,16.71
2019-03-27T08:09:46.445Z,16.77
2019-03-27T08:12:13.696Z,16.76
2019-03-27T08:14:40.662Z,16.77
2019-03-27T08:17:07.914Z,16.79
2019-03-27T08:19:34.842Z,16.85
2019-03-27T08:22:01.778Z,16.82
2019-03-27T08:24:28.713Z,16.77
2019-03-27T08:26:56.093Z,16.77
2019-03-27T08:29:23.071Z,16.75
2019-03-27T08:31:50.042Z,16.75
2019-03-27T08:34:17.017Z,16.76
2019-03-27T08:36:44.163Z,16.82
2019-03-27T08:39:11.066Z,16.88
2019-03-27T08:41:38.256Z,16.95
2019-03-27T08:44:05.512Z,16.95
2019-03-27T08:46:32.413Z,16.96
2019-03-27T08:49:00.341Z,16.96
2019-03-27T08:51:27.683Z,16.94
2019-03-27T08:53:54.945Z,16.97
2019-03-27T08:56:21.920Z,16.97
2019-03-27T08:58:48.913Z,16.98
2019-03-27T09:01:16.940Z,16.99
2019-03-27T09:03:43.910Z,17.02
2019-03-27T09:06:11.200Z,17.03
2019-03-27T09:08:38.456Z,16.99
2019-03-27T09:11:05.362Z,17.01
2019-03-27T09:13:32.326Z,17.05
2019-03-27T09:15:59.286Z,17.06
2019-03-27T09:18:26.171Z,17.06
2019-03-27T09:20:53.478Z,17.11
2019-03-27T09:23:20.364Z,17.14
2019-03-27T09:25:47.344Z,17.19
2019-03-27T09:28:14.623Z,17.18
2019-03-27T09:30:41.890Z,17.18
2019-03-27T09:33:08.916Z,17.13
2019-03-27T09:35:36.872Z,17.15
2019-03-27T09:38:04.089Z,17.18
2019-03-27T09:40:31.202Z,17.23
2019-03-27T09:42:58.381Z,17.25
2019-03-27T09:45:25.801Z,17.28
2019-03-27T09:47:53.128Z,17.29
2019-03-27T09:50:20.421Z,17.30
2019-03-27T09:52:47.585Z,17.29
2019-03-27T09:55:14.829Z,17.23
2019-03-27T09:57:41.834Z,17.18
2019-03-27T10:00:08.782Z,17.17
2019-03-27T10:02:35.687Z,17.22
2019-03-27T10:05:02.648Z,17.20
2019-03-27T10:07:29.619Z,17.15
2019-03-27T10:09:56.799Z,17.16
2019-03-27T10:12:23.778Z,17.16
2019-03-27T10:14:50.735Z,17.18
2019-03-27T10:17:17.704Z,17.17
2019-03-27T10:19:44.900Z,17.13
2019-03-27T10:22:11.845Z,17.16
2019-03-27T10:24:38.772Z,17.18
2019-03-27T10:27:08.914Z,17.25
2019-03-27T10:29:35.880Z,17.28
2019-03-27T10:32:03.202Z,17.34
2019-03-27T10:34:30.086Z,17.45
2019-03-27T10:36:57.321Z,17.57
2019-03-27T10:39:24.229Z,17.63
2019-03-27T10:41:51.282Z,17.71
2019-03-27T10:44:18.272Z,17.73
2019-03-27T10:46:45.504Z,17.75
2019-03-27T10:49:12.376Z,17.79
2019-03-27T10:51:39.277Z,17.77
2019-03-27T10:54:06.306Z,17.86
2019-03-27T10:56:33.239Z,17.91
2019-03-27T10:59:00.548Z,17.96
2019-03-27T11:01:27.949Z,17.96
2019-03-27T11:03:54.914Z,17.92
2019-03-27T11:06:21.818Z,17.86
2019-03-27T11:08:48.802Z,17.82
2019-03-27T11:11:16.148Z,17.80
2019-03-27T11:13:43.029Z,17.82
2019-03-27T11:16:09.907Z,17.83
2019-03-27T11:18:36.842Z,17.81
2019-03-27T11:21:03.751Z,17.77
2019-03-27T11:23:32.037Z,17.69
2019-03-27T11:25:58.985Z,17.67
2019-03-27T11:28:28.629Z,17.69
2019-03-27T11:30:55.593Z,17.71
2019-03-27T11:33:22.584Z,17.77
2019-03-27T11:35:51.755Z,17.80
2019-03-27T11:38:19.500Z,17.80
2019-03-27T11:40:46.787Z,17.80
2019-03-27T11:43:14.051Z,17.82
2019-03-27T11:45:41.009Z,17.83
2019-03-27T11:48:09.686Z,17.86
2019-03-27T11:50:44.556Z,17.86
2019-03-27T11:53:05.144Z,17.85
2019-03-27T11:55:32.090Z,17.86
2019-03-27T11:57:59.429Z,17.91
2019-03-27T12:00:26.360Z,17.97
2019-03-27T12:02:53.261Z,17.99
2019-03-27T12:05:20.576Z,18.01
2019-03-27T12:07:47.931Z,18.05
2019-03-27T12:10:14.886Z,18.09
2019-03-27T12:12:42.257Z,18.09
2019-03-27T12:15:09.576Z,18.09
2019-03-27T12:17:36.848Z,18.10
2019-03-27T12:20:04.279Z,18.09
2019-03-27T12:22:31.517Z,18.05
2019-03-27T12:24:58.517Z,18.01
2019-03-27T12:27:25.833Z,18.00
2019-03-27T12:29:52.846Z,17.98
2019-03-27T12:32:19.818Z,17.97
2019-03-27T12:34:46.772Z,17.97
2019-03-27T12:37:13.753Z,17.96
2019-03-27T12:39:41.252Z,17.94
2019-03-27T12:42:08.181Z,17.88
2019-03-27T12:44:35.466Z,17.86
2019-03-27T12:47:02.532Z,17.82
2019-03-27T12:49:29.432Z,17.83
2019-03-27T12:51:56.380Z,17.82
2019-03-27T12:54:23.295Z,17.82
2019-03-27T12:56:50.608Z,17.83
2019-03-27T12:59:17.585Z,17.86
2019-03-27T13:01:44.802Z,17.88
2019-03-27T13:04:11.765Z,17.93
2019-03-27T13:06:38.671Z,17.93
2019-03-27T13:09:05.609Z,17.92
2019-03-27T13:11:32.794Z,17.89
2019-03-27T13:13:59.761Z,17.89
2019-03-27T13:16:26.786Z,17.94
2019-03-27T13:18:53.801Z,17.96
2019-03-27T13:21:26.195Z,17.95
2019-03-27T13:23:49.257Z,17.96
2019-03-27T13:26:16.519Z,17.98
2019-03-27T13:28:48.979Z,18.03
2019-03-27T13:31:12.663Z,18.05
2019-03-27T13:33:39.914Z,18.08
2019-03-27T13:36:07.181Z,18.09
2019-03-27T13:38:34.417Z,18.10
2019-03-27T13:41:01.366Z,18.06
2019-03-27T13:43:28.299Z,18.06
2019-03-27T13:45:55.566Z,18.03
2019-03-27T13:48:22.481Z,17.97
2019-03-27T13:50:49.764Z,17.94
2019-03-27T13:53:16.763Z,17.93
2019-03-27T13:55:43.729Z,17.90
2019-03-27T13:58:10.643Z,17.92
2019-03-27T14:00:37.676Z,17.96
2019-03-27T14:03:04.564Z,17.98
2019-03-27T14:05:31.857Z,18.01
2019-03-27T14:07:58.825Z,18.02
2019-03-27T14:10:26.047Z,18.05
2019-03-27T14:12:53.378Z,18.08
2019-03-27T14:15:20.261Z,18.07
2019-03-27T14:17:47.218Z,18.06
2019-03-27T14:20:14.187Z,18.07
2019-03-27T14:22:41.481Z,18.04
2019-03-27T14:25:08.638Z,18.04
2019-03-27T14:27:35.564Z,18.03
2019-03-27T14:30:02.464Z,18.04
2019-03-27T14:32:29.994Z,18.06
2019-03-27T14:34:57.256Z,18.07
2019-03-27T14:37:24.210Z,18.09
2019-03-27T14:39:51.475Z,18.14
2019-03-27T14:42:18.706Z,18.14
2019-03-27T14:44:45.661Z,18.14
2019-03-27T14:47:12.605Z,18.15
2019-03-27T14:49:39.565Z,18.14
2019-03-27T14:52:08.578Z,18.12
2019-03-27T14:54:35.381Z,18.13
2019-03-27T14:57:02.320Z,18.13
2019-03-27T14:59:29.293Z,18.13
2019-03-27T15:01:56.158Z,18.13
2019-03-27T15:04:23.056Z,18.12
2019-03-27T15:06:50.305Z,18.12
2019-03-27T15:09:17.293Z,18.16
2019-03-27T15:11:44.248Z,18.21
2019-03-27T15:14:11.199Z,18.30
2019-03-27T15:16:38.385Z,18.49
2019-03-27T15:19:05.645Z,18.68
2019-03-27T15:21:32.912Z,18.82
2019-03-27T15:24:00.253Z,18.91
2019-03-27T15:26:27.504Z,18.98
2019-03-27T15:28:54.655Z,19.01
2019-03-27T15:31:21.611Z,19.06
2019-03-27T15:33:49.066Z,19.15
2019-03-27T15:36:16.427Z,19.17
2019-03-27T15:38:43.727Z,19.03
2019-03-27T15:41:11.032Z,18.90
2019-03-27T15:43:38.080Z,18.81
2019-03-27T15:46:05.332Z,18.74
2019-03-27T15:48:32.689Z,18.67
2019-03-27T15:50:59.691Z,18.59
2019-03-27T15:53:26.974Z,18.59
2019-03-27T15:55:54.380Z,18.59
2019-03-27T15:58:21.799Z,18.55
2019-03-27T16:00:48.715Z,18.54
2019-03-27T16:03:16.090Z,18.54
2019-03-27T16:05:42.991Z,18.55
2019-03-27T16:08:09.949Z,18.56
2019-03-27T16:10:37.243Z,18.57
2019-03-27T16:13:04.335Z,18.56
2019-03-27T16:15:31.249Z,18.57
2019-03-27T16:17:58.250Z,18.56
2019-03-27T16:20:25.580Z,18.52
2019-03-27T16:22:52.469Z,18.50
2019-03-27T16:25:19.440Z,18.50
2019-03-27T16:27:46.318Z,18.52
2019-03-27T16:30:13.271Z,18.53
2019-03-27T16:32:40.141Z,18.52
2019-03-27T16:35:07.326Z,18.53
2019-03-27T16:37:34.262Z,18.54
2019-03-27T16:40:01.213Z,18.53
2019-03-27T16:42:29.783Z,18.55
2019-03-27T16:44:57.040Z,18.55
2019-03-27T16:47:23.939Z,18.56
2019-03-27T16:49:50.909Z,18.55
2019-03-27T16:52:17.891Z,18.53
2019-03-27T16:54:44.825Z,18.53
2019-03-27T16:57:12.086Z,18.52
2019-03-27T16:59:38.986Z,18.47
2019-03-27T17:02:06.042Z,18.44
2019-03-27T17:04:33.318Z,18.42
2019-03-27T17:07:00.191Z,18.43
2019-03-27T17:09:27.066Z,18.40
2019-03-27T17:11:54.036Z,18.37
2019-03-27T17:14:20.941Z,18.39
2019-03-27T17:16:47.929Z,18.35
2019-03-27T17:19:14.885Z,18.32
2019-03-27T17:21:41.801Z,18.25
2019-03-27T17:24:08.775Z,18.25
2019-03-27T17:26:35.780Z,18.26
2019-03-27T17:29:02.734Z,18.26
2019-03-27T17:31:29.618Z,18.27
2019-03-27T17:33:56.562Z,18.26
2019-03-27T17:36:23.826Z,18.28
2019-03-27T17:38:51.069Z,18.25
2019-03-27T17:41:36.557Z,18.24
2019-03-27T17:44:28.990Z,18.25
2019-03-27T17:47:13.683Z,18.04
2019-03-27T17:49:49.649Z,17.92
2019-03-27T17:52:16.633Z,17.91
2019-03-27T17:54:43.539Z,17.99
2019-03-27T17:57:10.509Z,18.03
2019-03-27T17:59:37.391Z,18.07
2019-03-27T18:02:04.294Z,18.08
2019-03-27T18:04:31.333Z,18.10
2019-03-27T18:06:58.642Z,18.13
2019-03-27T18:09:25.993Z,18.16
2019-03-27T18:11:53.243Z,18.20
2019-03-27T18:14:20.632Z,18.20
2019-03-27T18:16:47.580Z,18.18
2019-03-27T18:19:14.569Z,18.15
2019-03-27T18:21:42.004Z,18.13
2019-03-27T18:24:08.963Z,18.13
2019-03-27T18:26:36.258Z,18.15
2019-03-27T18:29:03.137Z,18.15
2019-03-27T18:31:30.351Z,18.13
2019-03-27T18:33:57.273Z,18.11
2019-03-27T18:36:24.222Z,18.11
2019-03-27T18:38:51.169Z,18.11
2019-03-27T18:41:18.121Z,18.11
2019-03-27T18:43:45.109Z,18.10
2019-03-27T18:46:12.095Z,18.09
2019-03-27T18:48:39.094Z,18.09
2019-03-27T18:51:06.185Z,18.08
2019-03-27T18:53:33.478Z,18.09
2019-03-27T18:56:03.385Z,18.06
2019-03-27T18:58:30.639Z,18.09
2019-03-27T19:00:57.993Z,18.07
2019-03-27T19:03:25.253Z,18.00
2019-03-27T19:05:52.560Z,18.03
2019-03-27T19:08:19.869Z,18.03
2019-03-27T19:10:46.840Z,18.04
2019-03-27T19:13:13.793Z,18.04
2019-03-27T19:15:41.014Z,18.14
2019-03-27T19:18:08.264Z,18.19
2019-03-27T19:20:36.308Z,18.22
2019-03-27T19:23:04.435Z,18.22
2019-03-27T19:25:31.388Z,18.20
2019-03-27T19:27:58.710Z,18.20
2019-03-27T19:30:25.585Z,18.17
2019-03-27T19:32:52.483Z,18.17
2019-03-27T19:35:19.458Z,18.16
2019-03-27T19:37:46.467Z,18.12
2019-03-27T19:40:13.425Z,18.10
2019-03-27T19:42:40.386Z,18.06
2019-03-27T19:45:07.736Z,18.07
2019-03-27T19:47:35.007Z,18.06
2019-03-27T19:50:03.160Z,18.04
2019-03-27T19:52:30.302Z,18.04
2019-03-27T19:54:57.664Z,18.05
2019-03-27T19:57:24.657Z,18.06
2019-03-27T19:59:51.726Z,18.08
2019-03-27T20:02:18.753Z,18.07
2019-03-27T20:04:45.706Z,18.06
2019-03-27T20:07:13.109Z,18.08
2019-03-27T20:09:40.378Z,18.08
2019-03-27T20:12:08.741Z,18.09
2019-03-27T20:14:35.653Z,18.08
2019-03-27T20:17:03.054Z,18.09
2019-03-27T20:19:31.417Z,18.08
2019-03-27T20:21:58.409Z,18.08
2019-03-27T20:24:25.881Z,18.08
2019-03-27T20:26:52.848Z,18.07
2019-03-27T20:29:20.143Z,18.07
2019-03-27T20:31:47.373Z,18.09
2019-03-27T20:34:15.319Z,18.10
2019-03-27T20:36:42.606Z,18.10
2019-03-27T20:39:09.560Z,18.09
2019-03-27T20:41:36.634Z,18.08
2019-03-27T20:44:03.799Z,18.10
2019-03-27T20:46:30.986Z,18.10
2019-03-27T20:48:57.876Z,18.08
2019-03-27T20:51:25.739Z,18.07
2019-03-27T20:53:53.076Z,18.05
2019-03-27T20:56:20.057Z,18.02
2019-03-27T20:58:46.942Z,18.00
2019-03-27T21:01:13.974Z,18.00
2019-03-27T21:03:40.931Z,17.96
2019-03-27T21:06:07.930Z,17.97
2019-03-27T21:08:35.249Z,17.98
2019-03-27T21:11:02.507Z,17.95
2019-03-27T21:13:29.665Z,17.93
2019-03-27T21:15:56.569Z,17.91
2019-03-27T21:18:23.588Z,17.91
2019-03-27T21:20:50.469Z,17.89
2019-03-27T21:23:17.350Z,17.87
2019-03-27T21:25:44.254Z,17.86
2019-03-27T21:28:11.529Z,17.86
2019-03-27T21:30:38.452Z,17.86
2019-03-27T21:33:05.404Z,17.83
2019-03-27T21:35:32.676Z,17.80
2019-03-27T21:37:59.556Z,17.78
2019-03-27T21:40:26.556Z,17.76
2019-03-27T21:42:53.513Z,17.75
2019-03-27T21:45:20.500Z,17.75
2019-03-27T21:47:47.477Z,17.73
2019-03-27T21:50:14.645Z,17.72
2019-03-27T21:52:41.531Z,17.69
2019-03-27T21:55:21.442Z,17.67
2019-03-27T21:57:37.091Z,17.65
2019-03-27T22:00:04.371Z,17.62
2019-03-27T22:02:31.835Z,17.58
2019-03-27T22:04:58.786Z,17.55
2019-03-27T22:07:25.750Z,17.54
2019-03-27T22:09:52.654Z,17.54
2019-03-27T22:12:19.619Z,17.55
2019-03-27T22:14:46.871Z,17.54
2019-03-27T22:17:13.756Z,17.54
2019-03-27T22:19:40.648Z,17.54
2019-03-27T22:22:07.639Z,17.56
2019-03-27T22:24:34.581Z,17.55
2019-03-27T22:27:01.916Z,17.54
2019-03-27T22:29:28.854Z,17.54
2019-03-27T22:31:56.025Z,17.53
2019-03-27T22:34:22.923Z,17.53
2019-03-27T22:36:49.889Z,17.53
2019-03-27T22:39:17.166Z,17.55
2019-03-27T22:41:44.395Z,17.55
2019-03-27T22:44:11.577Z,17.55
2019-03-27T22:46:38.808Z,17.54
2019-03-27T22:49:06.064Z,17.54
2019-03-27T22:51:33.422Z,17.55
2019-03-27T22:54:00.287Z,17.53
2019-03-27T22:56:27.616Z,17.51
2019-03-27T22:58:54.612Z,17.53
2019-03-27T23:01:21.558Z,17.52
2019-03-27T23:03:48.512Z,17.52
2019-03-27T23:06:15.520Z,17.54
2019-03-27T23:08:42.542Z,17.55
2019-03-27T23:11:09.694Z,17.55
2019-03-27T23:13:36.587Z,17.53
2019-03-27T23:16:03.810Z,17.54
2019-03-27T23:18:30.843Z,17.51
2019-03-27T23:20:57.798Z,17.53
2019-03-27T23:23:25.034Z,17.55
2019-03-27T23:26:02.493Z,17.56
2019-03-27T23:28:20.891Z,17.54
2019-03-27T23:30:47.853Z,17.52
2019-03-27T23:33:14.808Z,17.46
2019-03-27T23:35:41.786Z,17.44
2019-03-27T23:38:09.093Z,17.43
2019-03-27T23:40:36.330Z,17.45
2019-03-27T23:43:03.347Z,17.45
2019-03-27T23:45:30.640Z,17.44
2019-03-27T23:47:57.877Z,17.46
2019-03-27T23:50:24.758Z,17.44
2019-03-27T23:52:51.671Z,17.43
2019-03-27T23:55:18.952Z,17.45
2019-03-27T23:57:45.906Z,17.47
